KCOF/COF METAR and TAF weather

Enter ICAO airport designator
Station Type Date Time Source
KCOF METAR 2021/10/22 19:56 UTC NOAA

KCOF 221956Z AUTO 08009KT 10SM CLR 29/22 A2997 RMK AO2 SLP153 T02850222 $


Station Type Date Time Source
KCOF Decoded METAR 2021/10/22 19:56 UTC NOAA

Cocoa / Patrick Air Force Base, FL, United States (KCOF) 28-14N 080-36W 3M
Oct 22, 2021 - 03:56 PM EDT / 2021.10.22 1956 UTC
Wind: from the E (080 degrees) at 10 MPH (9 KT):0
Visibility: 10 mile(s):0
Sky conditions: clear
Temperature: 83.3 F (28.5 C)
Dew Point: 72.0 F (22.2 C)
Relative Humidity: 68%
Pressure (altimeter): 29.97 in. Hg (1014 hPa)
ob: KCOF 221956Z AUTO 08009KT 10SM CLR 29/22 A2997 RMK AO2 SLP153 T02850222
cycle: 20

Station Type Date Time Source
KCOF TAF 2021/10/22 02:03 UTC NOAA

TAF TAF KCOF 220200Z 2202/2308 VRB06KT 9999 SCT200 QNH3001INS
BECMG 2215/2216 08008KT 9999 FEW040 FEW200 QNH2995INS
BECMG 2302/2303 VRB06KT 9999 FEW200 QNH2994INS TX30/2218Z TN24/2211Z LAST NO
AMDS AFT 2204 NEXT 2310

Example: see airport list